createdAt,value
2023-04-20T00:02:08.807Z,8.00
2023-04-20T00:04:36.398Z,8.93
2023-04-20T00:07:02.853Z,7.85
2023-04-20T00:09:29.222Z,6.32
2023-04-20T00:11:55.549Z,6.97
2023-04-20T00:14:21.895Z,6.25
2023-04-20T00:16:49.011Z,6.60
2023-04-20T00:19:15.525Z,7.88
2023-04-20T00:21:41.973Z,6.55
2023-04-20T00:24:08.465Z,5.60
2023-04-20T00:26:34.862Z,7.85
2023-04-20T00:29:01.175Z,8.52
2023-04-20T00:31:27.625Z,6.03
2023-04-20T00:33:54.055Z,7.18
2023-04-20T00:36:20.606Z,8.15
2023-04-20T00:38:46.954Z,8.25
2023-04-20T00:41:13.684Z,6.50
2023-04-20T00:43:52.731Z,8.77
2023-04-20T00:46:20.774Z,6.20
2023-04-20T00:48:49.791Z,6.43
2023-04-20T00:51:16.242Z,7.10
2023-04-20T00:53:42.769Z,6.30
2023-04-20T00:56:09.274Z,8.27
2023-04-20T00:58:35.897Z,6.35
2023-04-20T01:01:02.247Z,6.90
2023-04-20T01:03:28.689Z,7.80
2023-04-20T01:05:55.249Z,7.55
2023-04-20T01:08:26.113Z,6.18
2023-04-20T01:10:52.593Z,6.05
2023-04-20T01:13:18.963Z,5.68
2023-04-20T01:15:45.346Z,7.45
2023-04-20T01:18:11.724Z,6.80
2023-04-20T01:20:38.136Z,6.53
2023-04-20T01:23:04.526Z,7.35
2023-04-20T01:25:31.181Z,6.25
2023-04-20T01:27:57.493Z,6.47
2023-04-20T01:30:24.128Z,6.07
2023-04-20T01:32:50.813Z,5.93
2023-04-20T01:35:17.384Z,5.50
2023-04-20T01:37:43.769Z,6.25
2023-04-20T01:40:12.059Z,6.93
2023-04-20T01:42:38.567Z,6.22
2023-04-20T01:45:08.041Z,6.38
2023-04-20T01:47:35.372Z,5.88
2023-04-20T01:50:01.772Z,5.97
2023-04-20T01:52:28.126Z,5.85
2023-04-20T01:54:54.469Z,7.28
2023-04-20T01:57:20.827Z,5.80
2023-04-20T01:59:47.146Z,5.82
2023-04-20T02:02:13.570Z,5.93
2023-04-20T02:04:40.198Z,5.47
2023-04-20T02:07:06.559Z,5.53
2023-04-20T02:09:32.960Z,5.40
2023-04-20T02:11:59.292Z,5.72
2023-04-20T02:14:25.691Z,5.53
2023-04-20T02:16:53.372Z,6.10
2023-04-20T02:19:19.894Z,5.25
2023-04-20T02:21:46.285Z,5.32
2023-04-20T02:24:12.640Z,6.43
2023-04-20T02:26:38.961Z,5.18
2023-04-20T02:29:05.336Z,5.60
2023-04-20T02:31:31.789Z,5.70
2023-04-20T02:33:58.164Z,4.90
2023-04-20T02:36:24.486Z,6.57
2023-04-20T02:38:50.842Z,5.47
2023-04-20T02:41:17.182Z,5.22
2023-04-20T02:43:43.551Z,8.68
2023-04-20T02:46:09.927Z,5.72
2023-04-20T02:48:36.279Z,5.55
2023-04-20T02:51:02.673Z,5.35
2023-04-20T02:53:29.013Z,5.30
2023-04-20T02:55:55.380Z,6.22
2023-04-20T02:58:21.696Z,5.45
2023-04-20T03:00:48.044Z,4.93
2023-04-20T03:03:14.892Z,5.35
2023-04-20T03:05:41.637Z,4.88
2023-04-20T03:08:08.174Z,6.03
2023-04-20T03:10:34.637Z,5.35
2023-04-20T03:13:00.961Z,5.72
2023-04-20T03:15:27.282Z,8.50
2023-04-20T03:17:53.744Z,5.57
2023-04-20T03:20:20.588Z,5.18
2023-04-20T03:22:47.234Z,7.47
2023-04-20T03:25:13.666Z,5.55
2023-04-20T03:27:40.053Z,5.95
2023-04-20T03:30:07.104Z,5.63
2023-04-20T03:32:33.490Z,5.97
2023-04-20T03:34:59.879Z,6.55
2023-04-20T03:37:26.291Z,5.90
2023-04-20T03:39:52.632Z,5.40
2023-04-20T03:42:19.438Z,6.32
2023-04-20T03:44:45.782Z,6.95
2023-04-20T03:47:12.132Z,6.80
2023-04-20T03:49:38.579Z,5.45
2023-04-20T03:52:05.379Z,5.28
2023-04-20T03:54:31.719Z,5.80
2023-04-20T03:56:58.432Z,8.68
2023-04-20T03:59:24.801Z,8.88
2023-04-20T04:01:51.882Z,5.85
2023-04-20T04:04:18.903Z,6.72
2023-04-20T04:06:45.485Z,6.15
2023-04-20T04:09:11.857Z,5.97
2023-04-20T04:11:38.175Z,6.70
2023-04-20T04:14:05.173Z,7.97
2023-04-20T04:16:32.198Z,6.57
2023-04-20T04:18:58.518Z,8.15
2023-04-20T04:21:25.497Z,6.35
2023-04-20T04:23:51.850Z,6.80
2023-04-20T04:26:18.225Z,11.43
2023-04-20T04:28:45.845Z,6.97
2023-04-20T04:31:12.426Z,6.88
2023-04-20T04:33:38.799Z,7.45
2023-04-20T04:36:06.135Z,7.90
2023-04-20T04:38:33.335Z,7.38
2023-04-20T04:41:00.535Z,7.50
2023-04-20T04:43:27.454Z,7.18
2023-04-20T04:45:55.402Z,7.60
2023-04-20T04:48:21.809Z,6.57
2023-04-20T04:50:48.196Z,8.98
2023-04-20T04:53:14.653Z,7.53
2023-04-20T04:55:41.065Z,6.60
2023-04-20T04:58:07.406Z,7.55
2023-04-20T05:00:34.174Z,7.63
2023-04-20T05:03:00.652Z,7.18
2023-04-20T05:05:27.176Z,7.35
2023-04-20T05:07:53.528Z,7.13
2023-04-20T05:10:20.145Z,7.80
2023-04-20T05:12:47.336Z,8.48
2023-04-20T05:15:13.730Z,8.82
2023-04-20T05:17:40.450Z,7.63
2023-04-20T05:20:08.651Z,8.00
2023-04-20T05:22:35.091Z,7.43
2023-04-20T05:25:01.609Z,8.73
2023-04-20T05:27:28.040Z,7.55
2023-04-20T05:29:54.462Z,8.50
2023-04-20T05:32:20.864Z,8.68
2023-04-20T05:34:53.189Z,8.02
2023-04-20T05:37:19.629Z,10.55
2023-04-20T05:39:46.552Z,8.60
2023-04-20T05:42:13.018Z,9.02
2023-04-20T05:44:40.981Z,12.45
2023-04-20T05:47:08.604Z,8.32
2023-04-20T05:49:36.828Z,7.68
2023-04-20T05:52:03.575Z,8.63
2023-04-20T05:54:29.961Z,8.60
2023-04-20T05:56:58.605Z,8.23
2023-04-20T05:59:26.647Z,8.80
2023-04-20T06:01:53.031Z,8.40
2023-04-20T06:04:19.663Z,8.55
2023-04-20T06:06:46.247Z,9.35
2023-04-20T06:09:12.603Z,9.30
2023-04-20T06:11:38.957Z,8.82
2023-04-20T06:14:06.785Z,8.98
2023-04-20T06:16:34.171Z,8.55
2023-04-20T06:19:00.766Z,9.35
2023-04-20T06:21:27.314Z,8.82
2023-04-20T06:23:53.712Z,8.40
2023-04-20T06:26:21.250Z,8.98
2023-04-20T06:28:48.726Z,8.07
2023-04-20T06:31:17.185Z,9.13
2023-04-20T06:33:43.575Z,9.65
2023-04-20T06:36:10.043Z,8.93
2023-04-20T06:38:36.685Z,9.85
2023-04-20T06:41:03.158Z,10.00
2023-04-20T06:43:30.982Z,12.38
2023-04-20T06:45:57.437Z,10.95
2023-04-20T06:48:32.253Z,10.32
2023-04-20T06:50:59.359Z,13.00
2023-04-20T06:53:26.170Z,11.43
2023-04-20T06:55:55.356Z,12.90
2023-04-20T06:58:21.731Z,11.55
2023-04-20T07:00:48.164Z,12.93
2023-04-20T07:03:14.597Z,11.13
2023-04-20T07:05:41.411Z,12.55
2023-04-20T07:08:09.359Z,13.98
2023-04-20T07:10:35.834Z,12.30
2023-04-20T07:13:02.172Z,13.00
2023-04-20T07:15:28.484Z,12.80
2023-04-20T07:17:54.925Z,13.20
2023-04-20T07:20:21.409Z,13.50
2023-04-20T07:22:47.969Z,13.18
2023-04-20T07:25:14.291Z,13.85
2023-04-20T07:27:41.522Z,13.60
2023-04-20T07:30:09.131Z,13.15
2023-04-20T07:32:36.375Z,13.10
2023-04-20T07:35:03.630Z,12.85
2023-04-20T07:37:31.682Z,13.70
2023-04-20T07:39:58.244Z,12.43
2023-04-20T07:42:24.777Z,13.88
2023-04-20T07:44:51.277Z,12.02
2023-04-20T07:47:17.739Z,10.27
2023-04-20T07:49:44.874Z,13.65
2023-04-20T07:52:16.927Z,12.07
2023-04-20T07:54:46.471Z,10.88
2023-04-20T07:57:13.319Z,9.95
2023-04-20T07:59:40.542Z,13.73
2023-04-20T08:02:07.847Z,13.18
2023-04-20T08:04:38.253Z,14.70
2023-04-20T08:07:04.863Z,13.25
2023-04-20T08:09:31.277Z,10.50
2023-04-20T08:11:57.752Z,10.63
2023-04-20T08:14:24.261Z,12.88
2023-04-20T08:16:50.798Z,10.88
2023-04-20T08:19:17.201Z,13.73
2023-04-20T08:21:43.650Z,10.93
2023-04-20T08:24:10.508Z,12.75
2023-04-20T08:26:37.333Z,11.65
2023-04-20T08:29:04.448Z,12.43
2023-04-20T08:31:31.599Z,12.23
2023-04-20T08:33:58.292Z,13.30
2023-04-20T08:36:24.782Z,12.77
2023-04-20T08:38:55.010Z,13.27
2023-04-20T08:41:22.472Z,14.18
2023-04-20T08:43:50.383Z,12.75
2023-04-20T08:46:17.589Z,10.82
2023-04-20T08:48:46.647Z,12.02
2023-04-20T08:51:15.492Z,11.52
2023-04-20T08:53:41.908Z,10.77
2023-04-20T08:56:08.290Z,12.52
2023-04-20T08:58:34.694Z,12.55
2023-04-20T09:01:01.187Z,12.80
2023-04-20T09:03:36.070Z,10.35
2023-04-20T09:06:03.107Z,10.23
2023-04-20T09:08:43.022Z,13.38
2023-04-20T09:11:22.923Z,12.50
2023-04-20T09:14:03.231Z,11.27
2023-04-20T09:16:29.881Z,10.70
2023-04-20T09:18:56.994Z,11.15
2023-04-20T09:21:25.268Z,9.98
2023-04-20T09:24:00.417Z,10.18
2023-04-20T09:26:27.629Z,10.35
2023-04-20T09:28:54.134Z,10.32
2023-04-20T09:31:23.586Z,11.18
2023-04-20T09:34:00.774Z,10.95
2023-04-20T09:36:37.329Z,10.50
2023-04-20T09:39:15.567Z,10.40
2023-04-20T09:41:43.067Z,11.35
2023-04-20T09:44:10.901Z,11.82
2023-04-20T09:46:39.638Z,11.23
2023-04-20T09:49:07.767Z,11.43
2023-04-20T09:51:36.297Z,11.38
2023-04-20T09:54:05.589Z,11.32
2023-04-20T09:56:33.113Z,13.95
2023-04-20T09:59:00.912Z,14.82
2023-04-20T10:01:31.192Z,16.25
2023-04-20T10:04:00.124Z,13.43
2023-04-20T10:06:34.467Z,11.68
2023-04-20T10:09:02.946Z,13.90
2023-04-20T10:11:53.285Z,14.25
2023-04-20T10:14:23.249Z,12.13
2023-04-20T10:17:29.655Z,12.18
2023-04-20T10:19:56.136Z,12.93
2023-04-20T10:22:35.421Z,17.20
2023-04-20T10:25:14.654Z,18.67
2023-04-20T10:27:55.937Z,17.25
2023-04-20T10:30:23.643Z,15.73
2023-04-20T10:32:50.547Z,15.32
2023-04-20T10:35:17.166Z,15.02
2023-04-20T10:37:51.739Z,15.05
2023-04-20T10:40:29.087Z,15.82
2023-04-20T10:42:55.445Z,15.82
2023-04-20T10:45:33.440Z,17.00
2023-04-20T10:48:07.197Z,13.80
2023-04-20T10:50:33.807Z,16.15
2023-04-20T10:53:02.662Z,17.17
2023-04-20T10:55:31.487Z,14.23
2023-04-20T10:57:57.831Z,13.27
2023-04-20T11:00:27.282Z,10.48
2023-04-20T11:02:58.638Z,12.25
2023-04-20T11:05:27.337Z,13.35
2023-04-20T11:07:57.788Z,14.60
2023-04-20T11:10:37.102Z,16.13
2023-04-20T11:13:03.573Z,16.20
2023-04-20T11:15:35.982Z,15.43
2023-04-20T11:18:12.166Z,12.27
2023-04-20T11:20:59.129Z,14.88
2023-04-20T11:23:28.607Z,14.50
2023-04-20T11:25:57.100Z,11.77
2023-04-20T11:28:24.311Z,11.25
2023-04-20T11:30:51.104Z,10.95
2023-04-20T11:33:28.252Z,9.65
2023-04-20T11:35:56.150Z,9.10
2023-04-20T11:38:33.393Z,9.98
2023-04-20T11:41:04.524Z,10.05
2023-04-20T11:43:32.475Z,14.13
2023-04-20T11:45:59.860Z,17.38
2023-04-20T11:48:27.488Z,17.90
2023-04-20T11:50:53.919Z,20.67
2023-04-20T11:53:20.968Z,16.55
2023-04-20T11:55:47.485Z,14.27
2023-04-20T11:58:13.855Z,12.02
2023-04-20T12:00:40.316Z,7.82
2023-04-20T12:03:07.146Z,7.28
2023-04-20T12:05:33.998Z,7.10
2023-04-20T12:08:00.647Z,8.23
2023-04-20T12:10:26.997Z,8.23
2023-04-20T12:12:53.684Z,8.93
2023-04-20T12:15:20.053Z,7.70
2023-04-20T12:17:46.537Z,7.40
2023-04-20T12:20:13.702Z,8.05
2023-04-20T12:22:47.170Z,8.68
2023-04-20T12:25:14.003Z,8.88
2023-04-20T12:27:40.478Z,8.68
2023-04-20T12:30:09.222Z,9.10
2023-04-20T12:32:35.657Z,10.20
2023-04-20T12:35:02.623Z,8.82
2023-04-20T12:37:28.969Z,8.23
2023-04-20T12:39:55.304Z,11.15
2023-04-20T12:42:21.729Z,10.25
2023-04-20T12:44:48.168Z,7.53
2023-04-20T12:47:14.773Z,7.18
2023-04-20T12:49:43.320Z,6.60
2023-04-20T12:52:09.792Z,5.63
2023-04-20T12:54:36.430Z,6.18
2023-04-20T12:57:03.508Z,7.35
2023-04-20T12:59:30.383Z,7.03
2023-04-20T13:01:56.859Z,7.93
2023-04-20T13:04:24.007Z,7.88
2023-04-20T13:06:50.992Z,7.85
2023-04-20T13:09:17.403Z,7.72
2023-04-20T13:11:43.840Z,8.18
2023-04-20T13:14:10.221Z,8.23
2023-04-20T13:16:37.514Z,7.90
2023-04-20T13:19:04.045Z,8.40
2023-04-20T13:21:30.377Z,8.77
2023-04-20T13:23:57.024Z,9.38
2023-04-20T13:26:23.722Z,8.75
2023-04-20T13:28:50.107Z,9.85
2023-04-20T13:31:16.571Z,7.95
2023-04-20T13:33:43.328Z,7.03
2023-04-20T13:36:12.083Z,7.18
2023-04-20T13:38:38.654Z,8.70
2023-04-20T13:41:05.328Z,8.98
2023-04-20T13:43:31.675Z,10.27
2023-04-20T13:45:58.115Z,8.40
2023-04-20T13:48:24.575Z,7.15
2023-04-20T13:50:51.164Z,7.03
2023-04-20T13:53:17.548Z,7.72
2023-04-20T13:55:43.886Z,6.82
2023-04-20T13:58:10.260Z,7.22
2023-04-20T14:00:36.650Z,7.68
2023-04-20T14:03:03.181Z,6.40
2023-04-20T14:05:29.722Z,6.05
2023-04-20T14:07:58.409Z,6.82
2023-04-20T14:10:24.767Z,6.35
2023-04-20T14:12:51.456Z,7.38
2023-04-20T14:15:17.963Z,6.95
2023-04-20T14:17:44.368Z,6.80
2023-04-20T14:20:11.485Z,6.78
2023-04-20T14:22:37.926Z,7.45
2023-04-20T14:25:04.946Z,7.43
2023-04-20T14:27:31.465Z,8.48
2023-04-20T14:29:58.232Z,6.70
2023-04-20T14:32:24.732Z,6.57
2023-04-20T14:34:51.267Z,7.10
2023-04-20T14:37:17.609Z,7.43
2023-04-20T14:39:44.108Z,8.00
2023-04-20T14:42:10.475Z,7.82
2023-04-20T14:44:36.891Z,5.65
2023-04-20T14:47:03.373Z,5.95
2023-04-20T14:49:30.208Z,5.80
2023-04-20T14:51:56.582Z,6.57
2023-04-20T14:54:23.002Z,6.10
2023-04-20T14:56:49.495Z,6.68
2023-04-20T14:59:15.974Z,6.50
2023-04-20T15:01:51.564Z,6.10
2023-04-20T15:04:25.656Z,6.55
2023-04-20T15:06:52.474Z,6.18
2023-04-20T15:09:18.818Z,7.45
2023-04-20T15:11:45.156Z,6.53
2023-04-20T15:14:11.521Z,5.97
2023-04-20T15:16:37.937Z,7.30
2023-04-20T15:19:04.818Z,5.90
2023-04-20T15:21:32.175Z,5.82
2023-04-20T15:23:58.725Z,6.13
2023-04-20T15:26:25.174Z,5.72
2023-04-20T15:28:51.842Z,5.88
2023-04-20T15:31:18.892Z,6.95
2023-04-20T15:33:47.828Z,6.30
2023-04-20T15:36:17.598Z,5.80
2023-04-20T15:38:43.963Z,6.57
2023-04-20T15:41:10.860Z,5.50
2023-04-20T15:43:37.464Z,5.70
2023-04-20T15:46:03.937Z,6.15
2023-04-20T15:48:30.486Z,6.20
2023-04-20T15:50:56.868Z,6.10
2023-04-20T15:53:24.040Z,6.47
2023-04-20T15:55:50.482Z,6.47
2023-04-20T15:58:16.853Z,7.05
2023-04-20T16:00:43.252Z,6.35
2023-04-20T16:03:09.928Z,6.63
2023-04-20T16:05:37.391Z,6.53
2023-04-20T16:08:05.283Z,6.15
2023-04-20T16:10:31.923Z,6.25
2023-04-20T16:12:58.299Z,6.47
2023-04-20T16:15:24.920Z,6.72
2023-04-20T16:17:51.304Z,7.32
2023-04-20T16:20:17.808Z,6.90
2023-04-20T16:22:44.183Z,6.80
2023-04-20T16:25:12.323Z,6.43
2023-04-20T16:27:39.104Z,6.95
2023-04-20T16:30:06.265Z,7.97
2023-04-20T16:32:34.392Z,6.47
2023-04-20T16:35:00.824Z,6.60
2023-04-20T16:37:27.240Z,6.95
2023-04-20T16:39:53.594Z,7.00
2023-04-20T16:42:19.988Z,7.68
2023-04-20T16:44:46.394Z,7.55
2023-04-20T16:47:12.781Z,7.82
2023-04-20T16:49:39.176Z,17.52
2023-04-20T16:52:05.584Z,9.50
2023-04-20T16:54:32.006Z,8.10
2023-04-20T16:56:58.366Z,7.50
2023-04-20T16:59:24.738Z,7.20
2023-04-20T17:01:51.231Z,11.70
2023-04-20T17:04:18.390Z,9.13
2023-04-20T17:06:46.501Z,7.18
2023-04-20T17:09:12.860Z,8.25
2023-04-20T17:11:39.733Z,9.75
2023-04-20T17:14:07.050Z,8.40
2023-04-20T17:16:33.588Z,7.90
2023-04-20T17:19:00.547Z,8.20
2023-04-20T17:21:27.594Z,8.00
2023-04-20T17:23:53.972Z,8.23
2023-04-20T17:26:20.686Z,7.60
2023-04-20T17:28:47.576Z,7.68
2023-04-20T17:31:14.046Z,7.95
2023-04-20T17:33:40.547Z,8.70
2023-04-20T17:36:07.012Z,7.78
2023-04-20T17:38:38.199Z,7.78
2023-04-20T17:41:04.921Z,8.85
2023-04-20T17:43:31.504Z,7.72
2023-04-20T17:45:58.616Z,8.02
2023-04-20T17:48:25.331Z,8.05
2023-04-20T17:50:51.814Z,7.72
2023-04-20T17:53:18.235Z,7.88
2023-04-20T17:55:44.579Z,8.18
2023-04-20T17:58:10.980Z,7.78
2023-04-20T18:00:37.406Z,7.85
2023-04-20T18:03:04.022Z,7.47
2023-04-20T18:05:30.648Z,7.80
2023-04-20T18:07:57.626Z,7.40
2023-04-20T18:10:25.523Z,7.65
2023-04-20T18:12:52.183Z,8.07
2023-04-20T18:15:18.533Z,7.72
2023-04-20T18:17:45.152Z,7.50
2023-04-20T18:20:12.192Z,8.57
2023-04-20T18:22:39.350Z,7.97
2023-04-20T18:25:08.620Z,9.23
2023-04-20T18:27:35.372Z,8.48
2023-04-20T18:30:02.649Z,8.95
2023-04-20T18:32:30.755Z,7.97
2023-04-20T18:34:57.241Z,7.78
2023-04-20T18:37:23.647Z,8.77
2023-04-20T18:39:50.640Z,7.65
2023-04-20T18:42:17.244Z,7.97
2023-04-20T18:44:43.733Z,8.13
2023-04-20T18:47:10.274Z,7.50
2023-04-20T18:49:36.871Z,7.53
2023-04-20T18:52:09.838Z,9.02
2023-04-20T18:54:38.269Z,8.68
2023-04-20T18:57:05.653Z,8.65
2023-04-20T18:59:32.084Z,8.73
2023-04-20T19:01:58.855Z,9.73
2023-04-20T19:04:25.342Z,10.70
2023-04-20T19:06:51.747Z,9.73
2023-04-20T19:09:18.794Z,11.18
2023-04-20T19:11:45.219Z,11.15
2023-04-20T19:14:12.141Z,12.00
2023-04-20T19:16:38.730Z,10.18
2023-04-20T19:19:05.640Z,9.98
2023-04-20T19:21:32.732Z,10.48
2023-04-20T19:23:59.401Z,10.48
2023-04-20T19:26:26.147Z,10.63
2023-04-20T19:28:53.458Z,10.73
2023-04-20T19:31:20.443Z,10.85
2023-04-20T19:33:47.218Z,11.55
2023-04-20T19:36:13.909Z,11.95
2023-04-20T19:38:40.551Z,10.55
2023-04-20T19:41:07.011Z,10.25
2023-04-20T19:43:34.407Z,11.13
2023-04-20T19:46:00.836Z,9.85
2023-04-20T19:48:27.294Z,10.13
2023-04-20T19:50:56.517Z,11.40
2023-04-20T19:53:23.856Z,10.65
2023-04-20T19:55:50.207Z,9.02
2023-04-20T19:58:16.526Z,9.75
2023-04-20T20:00:42.926Z,9.93
2023-04-20T20:03:09.399Z,9.77
2023-04-20T20:05:35.781Z,10.75
2023-04-20T20:08:03.232Z,9.95
2023-04-20T20:10:29.886Z,9.48
2023-04-20T20:12:56.236Z,9.45
2023-04-20T20:15:22.554Z,9.80
2023-04-20T20:17:48.965Z,9.43
2023-04-20T20:20:15.445Z,9.48
2023-04-20T20:22:48.007Z,9.48
2023-04-20T20:25:15.373Z,9.25
2023-04-20T20:27:41.786Z,9.98
2023-04-20T20:30:08.876Z,9.95
2023-04-20T20:32:35.246Z,9.88
2023-04-20T20:35:01.625Z,10.77
2023-04-20T20:37:34.403Z,11.73
2023-04-20T20:40:07.232Z,12.63
2023-04-20T20:42:34.086Z,14.30
2023-04-20T20:45:01.034Z,15.98
2023-04-20T20:47:27.473Z,16.30
2023-04-20T20:49:53.834Z,17.17
2023-04-20T20:52:21.002Z,15.52
2023-04-20T20:54:47.335Z,15.85
2023-04-20T20:57:13.718Z,15.07
2023-04-20T20:59:40.165Z,19.48
2023-04-20T21:02:06.625Z,20.33
2023-04-20T21:04:33.222Z,19.42
2023-04-20T21:06:59.662Z,20.55
2023-04-20T21:09:26.192Z,22.20
2023-04-20T21:11:52.537Z,23.98
2023-04-20T21:14:18.876Z,28.48
2023-04-20T21:16:45.277Z,30.40
2023-04-20T21:19:11.815Z,33.97
2023-04-20T21:21:38.155Z,31.05
2023-04-20T21:24:04.614Z,32.00
2023-04-20T21:26:35.620Z,35.78
2023-04-20T21:29:03.394Z,36.65
2023-04-20T21:31:30.246Z,41.10
2023-04-20T21:33:57.554Z,38.50
2023-04-20T21:36:23.984Z,39.72
2023-04-20T21:38:50.422Z,41.00
2023-04-20T21:41:16.750Z,43.45
2023-04-20T21:43:43.645Z,46.70
2023-04-20T21:46:14.450Z,50.95
2023-04-20T21:48:41.158Z,47.20
2023-04-20T21:51:07.543Z,48.60
2023-04-20T21:53:34.418Z,44.42
2023-04-20T21:56:00.773Z,39.83
2023-04-20T21:58:27.089Z,36.80
2023-04-20T22:00:53.493Z,42.55
2023-04-20T22:03:20.058Z,42.67
2023-04-20T22:05:46.977Z,43.20
2023-04-20T22:08:15.074Z,44.72
2023-04-20T22:10:41.896Z,42.63
2023-04-20T22:13:08.238Z,44.55
2023-04-20T22:15:34.620Z,47.95
2023-04-20T22:18:01.085Z,46.47
2023-04-20T22:20:27.783Z,45.60
2023-04-20T22:22:54.101Z,45.47
2023-04-20T22:25:20.698Z,44.53
2023-04-20T22:27:47.085Z,46.60
2023-04-20T22:30:13.618Z,48.53
2023-04-20T22:32:40.916Z,46.83
2023-04-20T22:35:07.963Z,47.75
2023-04-20T22:37:35.100Z,45.88
2023-04-20T22:40:01.626Z,47.10
2023-04-20T22:42:28.112Z,54.00
2023-04-20T22:44:54.592Z,55.35
2023-04-20T22:47:21.090Z,57.63
2023-04-20T22:49:48.901Z,60.80
2023-04-20T22:52:15.333Z,70.50
2023-04-20T22:54:41.858Z,70.18
2023-04-20T22:57:08.181Z,64.40
2023-04-20T22:59:34.553Z,67.60
2023-04-20T23:02:01.040Z,71.03
2023-04-20T23:04:27.479Z,76.45
2023-04-20T23:06:58.115Z,76.18
2023-04-20T23:09:24.582Z,71.70
2023-04-20T23:11:53.655Z,78.85
2023-04-20T23:14:23.714Z,80.55
2023-04-20T23:16:50.334Z,73.50
2023-04-20T23:19:17.234Z,71.90
2023-04-20T23:21:43.823Z,69.38
2023-04-20T23:24:10.210Z,68.72
2023-04-20T23:26:36.589Z,67.10
2023-04-20T23:29:02.959Z,68.38
2023-04-20T23:31:29.337Z,70.50
2023-04-20T23:33:55.802Z,69.95
2023-04-20T23:36:22.204Z,73.13
2023-04-20T23:38:48.832Z,78.05
2023-04-20T23:41:15.527Z,71.97
2023-04-20T23:43:42.476Z,75.35
2023-04-20T23:46:09.097Z,71.93
2023-04-20T23:48:35.553Z,81.53
2023-04-20T23:51:02.381Z,83.88
2023-04-20T23:53:28.981Z,89.20
2023-04-20T23:55:55.635Z,92.32
2023-04-20T23:58:26.698Z,93.57
